createdAt,value
2023-02-11T00:01:25.170Z,0.27
2023-02-11T00:03:51.975Z,0.30
2023-02-11T00:06:19.639Z,0.37
2023-02-11T00:08:46.403Z,0.29
2023-02-11T00:11:15.196Z,0.39
2023-02-11T00:13:43.344Z,0.40
2023-02-11T00:16:12.453Z,0.40
2023-02-11T00:18:39.322Z,0.41
2023-02-11T00:21:15.073Z,0.41
2023-02-11T00:23:41.855Z,0.48
2023-02-11T00:26:16.689Z,0.58
2023-02-11T00:28:45.657Z,0.70
2023-02-11T00:31:15.326Z,0.81
2023-02-11T00:33:43.081Z,0.88
2023-02-11T00:36:30.575Z,0.95
2023-02-11T00:38:58.257Z,0.95
2023-02-11T00:41:26.002Z,0.94
2023-02-11T00:43:52.953Z,0.97
2023-02-11T00:46:20.842Z,1.02
2023-02-11T00:48:48.057Z,1.00
2023-02-11T00:51:14.719Z,0.98
2023-02-11T00:53:41.543Z,1.05
2023-02-11T00:56:08.105Z,0.95
2023-02-11T00:58:35.587Z,0.99
2023-02-11T01:01:02.481Z,0.97
2023-02-11T01:03:29.271Z,0.97
2023-02-11T01:05:56.055Z,0.91
2023-02-11T01:08:22.889Z,0.85
2023-02-11T01:11:01.683Z,0.84
2023-02-11T01:13:30.298Z,0.85
2023-02-11T01:15:56.961Z,0.80
2023-02-11T01:18:24.862Z,0.82
2023-02-11T01:20:53.082Z,0.82
2023-02-11T01:23:20.573Z,0.83
2023-02-11T01:25:48.534Z,0.84
2023-02-11T01:28:27.410Z,0.74
2023-02-11T01:30:54.403Z,0.83
2023-02-11T01:33:21.853Z,0.78
2023-02-11T01:35:49.004Z,0.85
2023-02-11T01:38:20.000Z,0.84
2023-02-11T01:41:07.931Z,0.81
2023-02-11T01:43:54.594Z,0.76
2023-02-11T01:46:41.785Z,0.89
2023-02-11T01:49:36.432Z,0.96
2023-02-11T01:52:32.027Z,1.12
2023-02-11T01:55:37.323Z,1.17
2023-02-11T01:58:05.072Z,1.22
2023-02-11T02:00:38.323Z,1.32
2023-02-11T02:03:09.769Z,1.29
2023-02-11T02:06:04.106Z,1.29
2023-02-11T02:08:43.020Z,1.36
2023-02-11T02:11:10.611Z,1.37
2023-02-11T02:13:37.508Z,1.45
2023-02-11T02:16:12.398Z,1.41
2023-02-11T02:19:47.790Z,1.37
2023-02-11T02:22:49.207Z,1.39
2023-02-11T02:25:35.407Z,1.44
2023-02-11T02:28:35.753Z,1.44
2023-02-11T02:31:30.887Z,1.43
2023-02-11T02:34:06.839Z,1.50
2023-02-11T02:36:51.795Z,1.55
2023-02-11T02:39:23.861Z,1.53
2023-02-11T02:41:53.275Z,1.47
2023-02-11T02:44:20.914Z,1.53
2023-02-11T02:46:47.517Z,1.52
2023-02-11T02:49:15.991Z,1.58
2023-02-11T02:52:04.684Z,1.53
2023-02-11T02:54:59.856Z,1.52
2023-02-11T02:57:40.760Z,1.52
2023-02-11T03:00:38.240Z,1.49
2023-02-11T03:03:31.131Z,1.49
2023-02-11T03:06:12.972Z,1.50
2023-02-11T03:08:49.374Z,1.44
2023-02-11T03:11:18.469Z,1.47
2023-02-11T03:13:47.556Z,1.48
2023-02-11T03:16:19.467Z,1.51
2023-02-11T03:19:11.488Z,1.52
2023-02-11T03:21:40.656Z,1.56
2023-02-11T03:24:13.564Z,1.51
2023-02-11T03:26:53.256Z,1.60
2023-02-11T03:29:35.571Z,1.53
2023-02-11T03:32:08.799Z,1.61
2023-02-11T03:34:47.566Z,1.58
2023-02-11T03:37:25.405Z,1.62
2023-02-11T03:39:57.443Z,1.61
2023-02-11T03:42:30.164Z,1.54
2023-02-11T03:45:04.467Z,1.58
2023-02-11T03:47:34.141Z,1.52
2023-02-11T03:50:04.533Z,1.52
2023-02-11T03:52:32.621Z,1.57
2023-02-11T03:55:01.681Z,1.60
2023-02-11T03:57:28.749Z,1.62
2023-02-11T03:59:58.120Z,1.66
2023-02-11T04:02:29.404Z,1.70
2023-02-11T04:04:56.662Z,1.73
2023-02-11T04:07:23.736Z,1.67
2023-02-11T04:09:50.493Z,1.71
2023-02-11T04:12:16.986Z,1.77
2023-02-11T04:14:43.589Z,1.76
2023-02-11T04:17:10.122Z,1.81
2023-02-11T04:19:37.015Z,1.73
2023-02-11T04:22:03.651Z,1.72
2023-02-11T04:24:30.818Z,1.70
2023-02-11T04:26:57.329Z,1.67
2023-02-11T04:29:23.879Z,1.68
2023-02-11T04:31:50.864Z,1.66
2023-02-11T04:34:17.551Z,1.66
2023-02-11T04:36:44.083Z,1.63
2023-02-11T04:39:14.046Z,1.60
2023-02-11T04:41:40.758Z,1.56
2023-02-11T04:44:07.587Z,1.57
2023-02-11T04:46:34.713Z,1.56
2023-02-11T04:49:01.128Z,1.57
2023-02-11T04:51:28.549Z,1.52
2023-02-11T04:53:55.135Z,1.52
2023-02-11T04:56:22.388Z,1.62
2023-02-11T04:58:48.813Z,1.57
2023-02-11T05:01:16.455Z,1.56
2023-02-11T05:03:43.423Z,1.48
2023-02-11T05:06:11.033Z,1.45
2023-02-11T05:08:38.281Z,1.44
2023-02-11T05:11:05.136Z,1.44
2023-02-11T05:13:32.511Z,1.37
2023-02-11T05:15:59.507Z,1.40
2023-02-11T05:18:26.246Z,1.40
2023-02-11T05:20:52.690Z,1.33
2023-02-11T05:23:19.459Z,1.37
2023-02-11T05:25:45.982Z,1.34
2023-02-11T05:28:12.705Z,1.35
2023-02-11T05:30:39.316Z,1.31
2023-02-11T05:33:05.827Z,1.41
2023-02-11T05:35:32.394Z,1.34
2023-02-11T05:37:59.474Z,1.33
2023-02-11T05:40:26.122Z,1.39
2023-02-11T05:42:52.628Z,1.42
2023-02-11T05:45:19.515Z,1.35
2023-02-11T05:47:46.418Z,1.37
2023-02-11T05:50:12.905Z,1.38
2023-02-11T05:52:39.800Z,1.34
2023-02-11T05:55:06.616Z,1.37
2023-02-11T05:57:34.184Z,1.39
2023-02-11T06:00:00.917Z,1.36
2023-02-11T06:02:27.869Z,1.41
2023-02-11T06:04:54.313Z,1.35
2023-02-11T06:07:21.246Z,1.36
2023-02-11T06:09:48.162Z,1.37
2023-02-11T06:12:14.643Z,1.36
2023-02-11T06:14:42.191Z,1.42
2023-02-11T06:17:08.968Z,1.35
2023-02-11T06:19:36.125Z,1.33
2023-02-11T06:22:03.844Z,1.33
2023-02-11T06:24:54.657Z,1.34
2023-02-11T06:27:18.615Z,1.30
2023-02-11T06:29:46.164Z,1.26
2023-02-11T06:32:33.599Z,1.28
2023-02-11T06:35:00.416Z,1.30
2023-02-11T06:37:27.291Z,1.27
2023-02-11T06:39:53.707Z,1.28
2023-02-11T06:42:20.609Z,1.26
2023-02-11T06:44:47.759Z,1.22
2023-02-11T06:47:14.217Z,1.30
2023-02-11T06:49:40.715Z,1.26
2023-02-11T06:52:07.433Z,1.27
2023-02-11T06:54:34.173Z,1.23
2023-02-11T06:57:01.144Z,1.26
2023-02-11T06:59:27.769Z,1.26
2023-02-11T07:01:54.277Z,1.27
2023-02-11T07:04:20.886Z,1.23
2023-02-11T07:06:47.422Z,1.30
2023-02-11T07:09:14.395Z,1.31
2023-02-11T07:11:40.839Z,1.38
2023-02-11T07:14:08.711Z,1.35
2023-02-11T07:16:35.750Z,1.40
2023-02-11T07:19:02.339Z,1.38
2023-02-11T07:21:29.025Z,1.47
2023-02-11T07:23:55.538Z,1.49
2023-02-11T07:26:23.690Z,1.48
2023-02-11T07:28:51.571Z,1.55
2023-02-11T07:31:21.401Z,1.57
2023-02-11T07:33:48.396Z,1.54
2023-02-11T07:36:16.386Z,1.52
2023-02-11T07:38:44.107Z,1.51
2023-02-11T07:41:16.083Z,1.49
2023-02-11T07:43:42.775Z,1.54
2023-02-11T07:46:12.924Z,1.59
2023-02-11T07:48:40.070Z,1.55
2023-02-11T07:51:21.991Z,1.62
2023-02-11T07:53:49.084Z,1.70
2023-02-11T07:56:16.875Z,1.76
2023-02-11T07:58:44.041Z,1.87
2023-02-11T08:01:13.268Z,1.90
2023-02-11T08:03:41.871Z,1.95
2023-02-11T08:06:14.318Z,2.04
2023-02-11T08:08:41.403Z,2.06
2023-02-11T08:11:15.217Z,2.17
2023-02-11T08:13:42.081Z,2.12
2023-02-11T08:16:10.279Z,2.13
2023-02-11T08:18:37.092Z,2.19
2023-02-11T08:21:09.079Z,2.28
2023-02-11T08:23:37.163Z,2.32
2023-02-11T08:26:04.912Z,2.45
2023-02-11T08:28:31.830Z,2.55
2023-02-11T08:30:58.551Z,2.61
2023-02-11T08:33:25.125Z,2.56
2023-02-11T08:35:51.684Z,2.62
2023-02-11T08:38:18.330Z,2.84
2023-02-11T08:40:44.892Z,2.72
2023-02-11T08:43:11.375Z,2.64
2023-02-11T08:45:37.913Z,2.67
2023-02-11T08:48:04.459Z,2.74
2023-02-11T08:50:32.151Z,2.60
2023-02-11T08:52:59.047Z,2.67
2023-02-11T08:55:25.673Z,2.73
2023-02-11T08:57:52.083Z,2.86
2023-02-11T09:00:19.224Z,3.01
2023-02-11T09:02:45.735Z,3.09
2023-02-11T09:05:12.361Z,3.16
2023-02-11T09:07:39.161Z,3.23
2023-02-11T09:10:06.442Z,3.34
2023-02-11T09:12:33.037Z,3.55
2023-02-11T09:14:59.586Z,3.74
2023-02-11T09:17:26.341Z,3.88
2023-02-11T09:19:53.252Z,4.05
2023-02-11T09:22:19.699Z,3.92
2023-02-11T09:24:46.155Z,4.09
2023-02-11T09:27:12.916Z,3.99
2023-02-11T09:29:39.451Z,4.03
2023-02-11T09:32:08.657Z,4.14
2023-02-11T09:34:36.592Z,4.19
2023-02-11T09:37:03.124Z,4.18
2023-02-11T09:39:29.833Z,4.26
2023-02-11T09:41:59.154Z,4.31
2023-02-11T09:44:28.763Z,4.24
2023-02-11T09:46:59.717Z,4.13
2023-02-11T09:49:45.162Z,4.40
2023-02-11T09:52:26.650Z,4.20
2023-02-11T09:55:11.146Z,4.24
2023-02-11T09:57:37.581Z,4.20
2023-02-11T10:00:37.027Z,4.28
2023-02-11T10:03:38.619Z,4.19
2023-02-11T10:06:22.612Z,4.29
2023-02-11T10:09:07.924Z,4.33
2023-02-11T10:11:43.443Z,4.60
2023-02-11T10:14:15.943Z,4.73
2023-02-11T10:16:59.952Z,5.05
2023-02-11T10:19:44.762Z,5.01
2023-02-11T10:22:24.463Z,5.14
2023-02-11T10:24:54.774Z,5.02
2023-02-11T10:27:31.069Z,5.20
2023-02-11T10:30:16.058Z,5.24
2023-02-11T10:32:49.456Z,5.41
2023-02-11T10:35:18.849Z,5.21
2023-02-11T10:37:45.695Z,5.43
2023-02-11T10:40:18.255Z,5.81
2023-02-11T10:42:49.753Z,5.76
2023-02-11T10:45:29.323Z,5.88
2023-02-11T10:47:56.229Z,5.78
2023-02-11T10:50:29.505Z,5.57
2023-02-11T10:53:19.659Z,5.62
2023-02-11T10:55:52.458Z,5.83
2023-02-11T10:58:31.705Z,5.75
2023-02-11T11:01:00.315Z,5.72
2023-02-11T11:03:32.874Z,5.60
2023-02-11T11:06:02.153Z,6.06
2023-02-11T11:08:44.922Z,6.59
2023-02-11T11:11:23.391Z,6.66
2023-02-11T11:13:52.796Z,6.37
2023-02-11T11:16:29.407Z,6.64
2023-02-11T11:19:08.288Z,6.63
2023-02-11T11:21:42.413Z,6.71
2023-02-11T11:24:22.622Z,7.12
2023-02-11T11:26:59.594Z,6.83
2023-02-11T11:29:37.234Z,7.50
2023-02-11T11:32:20.686Z,7.23
2023-02-11T11:34:56.555Z,7.12
2023-02-11T11:37:26.686Z,7.61
2023-02-11T11:40:02.302Z,7.84
2023-02-11T11:42:30.077Z,7.67
2023-02-11T11:44:59.656Z,7.93
2023-02-11T11:47:39.635Z,8.01
2023-02-11T11:50:43.029Z,7.56
2023-02-11T11:53:37.961Z,8.14
2023-02-11T11:56:07.338Z,7.96
2023-02-11T11:58:34.731Z,7.32
2023-02-11T12:01:28.689Z,7.85
2023-02-11T12:04:12.994Z,8.66
2023-02-11T12:06:42.564Z,8.69
2023-02-11T12:09:25.232Z,8.09
2023-02-11T12:12:10.213Z,8.94
2023-02-11T12:14:42.872Z,8.64
2023-02-11T12:17:28.311Z,8.68
2023-02-11T12:20:19.112Z,8.81
2023-02-11T12:23:00.105Z,8.23
2023-02-11T12:25:48.324Z,8.05
2023-02-11T12:28:34.938Z,8.05
2023-02-11T12:31:52.849Z,8.22
2023-02-11T12:34:45.531Z,8.26
2023-02-11T12:37:25.505Z,7.99
2023-02-11T12:40:06.911Z,7.94
2023-02-11T12:43:04.036Z,7.94
2023-02-11T12:45:45.828Z,8.32
2023-02-11T12:48:28.054Z,8.40
2023-02-11T12:51:01.721Z,8.42
2023-02-11T12:53:46.286Z,8.39
2023-02-11T12:56:20.910Z,8.40
2023-02-11T12:58:50.370Z,8.20
2023-02-11T13:01:23.318Z,8.27
2023-02-11T13:04:09.314Z,8.26
2023-02-11T13:06:45.240Z,8.43
2023-02-11T13:09:36.861Z,8.26
2023-02-11T13:12:26.076Z,8.24
2023-02-11T13:14:56.778Z,7.67
2023-02-11T13:17:35.074Z,7.76
2023-02-11T13:20:17.854Z,7.91
2023-02-11T13:22:50.751Z,7.87
2023-02-11T13:25:40.503Z,7.98
2023-02-11T13:28:29.557Z,7.87
2023-02-11T13:31:03.020Z,7.93
2023-02-11T13:33:43.255Z,8.07
2023-02-11T13:36:09.869Z,8.21
2023-02-11T13:38:37.527Z,8.26
2023-02-11T13:41:15.220Z,8.07
2023-02-11T13:43:42.207Z,7.75
2023-02-11T13:46:13.073Z,8.01
2023-02-11T13:48:48.058Z,8.16
2023-02-11T13:51:18.779Z,8.07
2023-02-11T13:53:58.307Z,8.08
2023-02-11T13:56:31.122Z,8.04
2023-02-11T13:59:01.869Z,7.85
2023-02-11T14:01:43.248Z,7.61
2023-02-11T14:04:41.083Z,7.55
2023-02-11T14:07:45.965Z,7.74
2023-02-11T14:10:43.806Z,7.93
2023-02-11T14:13:26.728Z,7.98
2023-02-11T14:16:13.488Z,7.79
2023-02-11T14:18:49.119Z,7.91
2023-02-11T14:21:29.005Z,7.77
2023-02-11T14:24:01.480Z,7.69
2023-02-11T14:26:51.323Z,7.68
2023-02-11T14:29:29.360Z,7.76
2023-02-11T14:32:05.933Z,7.62
2023-02-11T14:35:12.136Z,7.43
2023-02-11T14:37:50.969Z,7.66
2023-02-11T14:40:31.812Z,7.68
2023-02-11T14:43:14.975Z,7.48
2023-02-11T14:45:44.588Z,7.56
2023-02-11T14:48:20.067Z,7.60
2023-02-11T14:50:51.753Z,7.60
2023-02-11T14:53:21.899Z,7.68
2023-02-11T14:55:52.279Z,7.66
2023-02-11T14:58:20.983Z,7.67
2023-02-11T15:01:23.609Z,7.65
2023-02-11T15:03:50.231Z,7.71
2023-02-11T15:06:23.215Z,7.74
2023-02-11T15:08:58.272Z,7.54
2023-02-11T15:11:26.177Z,7.48
2023-02-11T15:13:55.352Z,7.40
2023-02-11T15:16:27.653Z,7.49
2023-02-11T15:18:59.497Z,7.63
2023-02-11T15:21:29.916Z,7.65
2023-02-11T15:23:58.002Z,7.62
2023-02-11T15:26:24.659Z,7.61
2023-02-11T15:28:54.160Z,7.62
2023-02-11T15:31:25.776Z,7.57
2023-02-11T15:33:53.676Z,7.52
2023-02-11T15:36:28.388Z,7.54
2023-02-11T15:39:43.284Z,7.46
2023-02-11T15:42:27.578Z,7.39
2023-02-11T15:45:15.840Z,7.37
2023-02-11T15:47:52.511Z,7.39
2023-02-11T15:50:25.007Z,7.44
2023-02-11T15:52:52.810Z,7.45
2023-02-11T15:55:19.921Z,7.48
2023-02-11T15:57:52.125Z,7.44
2023-02-11T16:00:21.496Z,7.38
2023-02-11T16:02:50.853Z,7.33
2023-02-11T16:05:28.565Z,7.39
2023-02-11T16:07:56.869Z,7.39
2023-02-11T16:10:29.462Z,7.39
2023-02-11T16:13:08.477Z,7.42
2023-02-11T16:15:34.954Z,7.38
2023-02-11T16:18:04.348Z,7.43
2023-02-11T16:20:30.927Z,7.39
2023-02-11T16:22:57.682Z,7.33
2023-02-11T16:25:24.634Z,7.27
2023-02-11T16:27:53.466Z,7.31
2023-02-11T16:30:23.356Z,7.26
2023-02-11T16:32:49.838Z,7.22
2023-02-11T16:35:16.339Z,7.23
2023-02-11T16:37:42.887Z,7.23
2023-02-11T16:40:11.770Z,7.29
2023-02-11T16:42:38.469Z,7.07
2023-02-11T16:45:05.320Z,7.00
2023-02-11T16:47:33.710Z,7.00
2023-02-11T16:50:01.816Z,7.10
2023-02-11T16:52:32.147Z,7.18
2023-02-11T16:54:59.622Z,7.20
2023-02-11T16:57:29.532Z,7.21
2023-02-11T16:59:57.298Z,7.22
2023-02-11T17:02:28.879Z,7.21
2023-02-11T17:04:58.360Z,7.22
2023-02-11T17:07:25.056Z,7.13
2023-02-11T17:09:54.562Z,7.18
2023-02-11T17:12:21.463Z,7.18
2023-02-11T17:14:48.055Z,7.13
2023-02-11T17:17:14.619Z,7.13
2023-02-11T17:19:41.366Z,7.10
2023-02-11T17:22:08.203Z,7.09
2023-02-11T17:24:34.696Z,7.09
2023-02-11T17:27:01.214Z,7.07
2023-02-11T17:29:27.888Z,7.07
2023-02-11T17:31:54.590Z,7.00
2023-02-11T17:34:22.080Z,6.99
2023-02-11T17:36:49.480Z,6.97
2023-02-11T17:39:16.292Z,6.91
2023-02-11T17:41:42.726Z,6.92
2023-02-11T17:44:10.869Z,6.85
2023-02-11T17:46:37.385Z,6.88
2023-02-11T17:49:04.569Z,6.82
2023-02-11T17:51:36.509Z,6.81
2023-02-11T17:54:06.237Z,6.80
2023-02-11T17:56:34.496Z,6.81
2023-02-11T17:59:02.442Z,6.82
2023-02-11T18:01:29.617Z,6.75
2023-02-11T18:03:56.125Z,6.79
2023-02-11T18:06:23.132Z,6.76
2023-02-11T18:08:49.752Z,6.75
2023-02-11T18:11:17.012Z,6.77
2023-02-11T18:13:45.207Z,6.73
2023-02-11T18:16:15.753Z,6.71
2023-02-11T18:18:43.372Z,6.66
2023-02-11T18:21:15.369Z,6.67
2023-02-11T18:23:42.161Z,6.64
2023-02-11T18:26:10.926Z,6.64
2023-02-11T18:28:37.920Z,6.60
2023-02-11T18:31:05.572Z,6.63
2023-02-11T18:33:32.372Z,6.66
2023-02-11T18:35:58.995Z,6.61
2023-02-11T18:38:25.801Z,6.61
2023-02-11T18:40:52.869Z,6.62
2023-02-11T18:43:20.273Z,6.58
2023-02-11T18:45:48.588Z,6.54
2023-02-11T18:48:16.236Z,6.53
2023-02-11T18:50:44.535Z,6.54
2023-02-11T18:53:15.489Z,6.48
2023-02-11T18:55:44.137Z,6.48
2023-02-11T18:58:10.860Z,6.50
2023-02-11T19:00:40.018Z,6.46
2023-02-11T19:03:06.970Z,6.49
2023-02-11T19:05:41.179Z,6.47
2023-02-11T19:08:07.784Z,6.47
2023-02-11T19:10:35.028Z,6.45
2023-02-11T19:13:01.563Z,6.44
2023-02-11T19:15:28.714Z,6.38
2023-02-11T19:17:55.166Z,6.29
2023-02-11T19:20:21.683Z,6.35
2023-02-11T19:22:48.247Z,6.40
2023-02-11T19:25:14.982Z,6.32
2023-02-11T19:27:42.056Z,6.22
2023-02-11T19:30:10.399Z,6.19
2023-02-11T19:32:37.265Z,6.28
2023-02-11T19:35:04.260Z,6.18
2023-02-11T19:37:30.772Z,6.15
2023-02-11T19:39:57.628Z,6.27
2023-02-11T19:42:27.612Z,6.32
2023-02-11T19:44:54.373Z,6.21
2023-02-11T19:47:29.974Z,6.28
2023-02-11T19:50:04.219Z,6.28
2023-02-11T19:52:38.256Z,6.30
2023-02-11T19:55:05.442Z,6.23
2023-02-11T19:57:32.460Z,6.26
2023-02-11T19:59:59.213Z,6.24
2023-02-11T20:02:26.178Z,6.26
2023-02-11T20:04:52.843Z,6.27
2023-02-11T20:07:19.383Z,6.27
2023-02-11T20:09:45.863Z,6.22
2023-02-11T20:12:12.678Z,6.22
2023-02-11T20:14:39.249Z,6.14
2023-02-11T20:17:06.151Z,6.13
2023-02-11T20:19:32.613Z,6.17
2023-02-11T20:21:59.508Z,6.18
2023-02-11T20:24:26.099Z,6.18
2023-02-11T20:26:55.776Z,6.21
2023-02-11T20:29:23.611Z,6.19
2023-02-11T20:31:50.885Z,6.24
2023-02-11T20:34:18.353Z,6.23
2023-02-11T20:36:51.620Z,6.19
2023-02-11T20:39:21.590Z,6.21
2023-02-11T20:41:48.735Z,6.19
2023-02-11T20:44:15.329Z,6.16
2023-02-11T20:46:48.085Z,6.14
2023-02-11T20:49:17.034Z,6.22
2023-02-11T20:51:43.572Z,6.18
2023-02-11T20:54:18.949Z,6.13
2023-02-11T20:56:48.126Z,6.04
2023-02-11T20:59:16.427Z,6.09
2023-02-11T21:01:45.580Z,6.09
2023-02-11T21:04:15.247Z,6.11
2023-02-11T21:06:47.965Z,6.12
2023-02-11T21:09:17.367Z,6.11
2023-02-11T21:11:44.380Z,6.10
2023-02-11T21:14:11.987Z,6.04
2023-02-11T21:16:39.566Z,6.11
2023-02-11T21:19:06.889Z,6.13
2023-02-11T21:21:36.893Z,6.12
2023-02-11T21:24:04.155Z,6.10
2023-02-11T21:26:33.005Z,6.02
2023-02-11T21:28:59.458Z,6.08
2023-02-11T21:31:32.205Z,6.06
2023-02-11T21:34:02.330Z,6.06
2023-02-11T21:36:30.343Z,6.08
2023-02-11T21:38:57.360Z,6.08
2023-02-11T21:41:24.793Z,6.08
2023-02-11T21:43:51.844Z,6.05
2023-02-11T21:46:19.869Z,6.03
2023-02-11T21:48:46.989Z,6.02
2023-02-11T21:51:17.085Z,6.03
2023-02-11T21:53:43.854Z,5.87
2023-02-11T21:56:13.429Z,5.95
2023-02-11T21:58:40.179Z,6.03
2023-02-11T22:01:19.623Z,5.87
2023-02-11T22:03:46.518Z,5.92
2023-02-11T22:06:16.715Z,5.90
2023-02-11T22:08:44.142Z,5.74
2023-02-11T22:11:13.344Z,5.73
2023-02-11T22:13:40.320Z,5.83
2023-02-11T22:16:11.168Z,5.92
2023-02-11T22:18:38.995Z,5.85
2023-02-11T22:21:08.557Z,5.89
2023-02-11T22:23:35.792Z,5.86
2023-02-11T22:26:11.804Z,5.90
2023-02-11T22:28:40.485Z,5.94
2023-02-11T22:31:12.292Z,5.86
2023-02-11T22:33:39.206Z,5.92
2023-02-11T22:36:09.397Z,5.91
2023-02-11T22:38:35.961Z,5.85
2023-02-11T22:41:07.766Z,5.90
2023-02-11T22:43:34.560Z,5.85
2023-02-11T22:46:06.610Z,5.86
2023-02-11T22:48:35.081Z,5.83
2023-02-11T22:51:10.988Z,5.79
2023-02-11T22:53:37.873Z,5.82
2023-02-11T22:56:15.015Z,5.82
2023-02-11T22:58:42.297Z,5.85
2023-02-11T23:01:08.744Z,5.85
2023-02-11T23:03:35.665Z,5.83
2023-02-11T23:06:02.971Z,5.78
2023-02-11T23:08:31.347Z,5.82
2023-02-11T23:11:10.502Z,5.83
2023-02-11T23:13:39.370Z,5.86
2023-02-11T23:16:09.057Z,5.83
2023-02-11T23:18:38.196Z,5.85
2023-02-11T23:21:12.463Z,5.80
2023-02-11T23:23:39.554Z,5.80
2023-02-11T23:26:09.883Z,5.79
2023-02-11T23:28:36.577Z,5.78
2023-02-11T23:31:14.011Z,5.76
2023-02-11T23:33:40.538Z,5.62
2023-02-11T23:36:07.727Z,5.74
2023-02-11T23:38:34.440Z,5.72
2023-02-11T23:41:00.932Z,5.74
2023-02-11T23:43:27.612Z,5.59
2023-02-11T23:45:54.503Z,5.67
2023-02-11T23:48:21.145Z,5.70
2023-02-11T23:50:48.283Z,5.65
2023-02-11T23:53:14.785Z,5.62
2023-02-11T23:55:43.138Z,5.65
2023-02-11T23:58:10.528Z,5.72
